createdAt,value
2018-04-21T00:01:54.179Z,80.92
2018-04-21T00:04:21.990Z,81.07
2018-04-21T00:06:49.712Z,81.20
2018-04-21T00:09:17.273Z,81.04
2018-04-21T00:11:44.888Z,81.30
2018-04-21T00:14:12.632Z,81.15
2018-04-21T00:16:40.192Z,81.23
2018-04-21T00:19:08.002Z,81.44
2018-04-21T00:21:35.557Z,81.01
2018-04-21T00:24:03.120Z,80.69
2018-04-21T00:26:30.964Z,80.48
2018-04-21T00:28:58.571Z,80.34
2018-04-21T00:31:26.137Z,80.17
2018-04-21T00:33:53.891Z,80.19
2018-04-21T00:36:21.467Z,80.10
2018-04-21T00:38:49.029Z,80.31
2018-04-21T00:41:16.605Z,80.07
2018-04-21T00:43:44.389Z,79.73
2018-04-21T00:46:12.201Z,79.66
2018-04-21T00:48:39.756Z,79.80
2018-04-21T00:51:07.318Z,79.79
2018-04-21T00:53:46.686Z,80.20
2018-04-21T00:56:14.250Z,80.21
2018-04-21T00:58:41.798Z,79.86
2018-04-21T01:01:09.349Z,79.66
2018-04-21T01:03:37.169Z,79.84
2018-04-21T01:06:04.776Z,79.39
2018-04-21T01:08:32.384Z,79.58
2018-04-21T01:10:59.942Z,79.35
2018-04-21T01:13:27.739Z,79.27
2018-04-21T01:15:55.459Z,79.48
2018-04-21T01:18:23.176Z,79.34
2018-04-21T01:20:50.996Z,79.64
2018-04-21T01:23:18.564Z,79.89
2018-04-21T01:25:46.219Z,80.09
2018-04-21T01:28:13.948Z,79.96
2018-04-21T01:30:41.516Z,80.34
2018-04-21T01:33:09.080Z,79.89
2018-04-21T01:35:36.635Z,79.79
2018-04-21T01:38:04.194Z,79.40
2018-04-21T01:40:31.749Z,79.53
2018-04-21T01:42:59.522Z,79.99
2018-04-21T01:45:27.238Z,79.71
2018-04-21T01:47:54.796Z,79.56
2018-04-21T01:50:22.356Z,79.66
2018-04-21T01:52:49.926Z,80.15
2018-04-21T01:55:17.516Z,80.20
2018-04-21T01:57:45.086Z,80.24
2018-04-21T02:00:12.704Z,80.11
2018-04-21T02:02:40.268Z,79.96
2018-04-21T02:05:07.824Z,80.08
2018-04-21T02:07:35.639Z,79.71
2018-04-21T02:10:03.210Z,79.51
2018-04-21T02:15:03.602Z,79.54
2018-04-21T02:17:31.425Z,79.96
2018-04-21T02:19:58.988Z,79.57
2018-04-21T02:22:26.596Z,79.58
2018-04-21T02:24:54.382Z,79.87
2018-04-21T02:27:22.097Z,80.08
2018-04-21T02:29:49.664Z,79.28
2018-04-21T02:32:17.225Z,78.70
2018-04-21T02:34:44.793Z,79.73
2018-04-21T02:37:12.572Z,79.38
2018-04-21T02:39:40.388Z,79.38
2018-04-21T02:42:07.962Z,80.06
2018-04-21T02:44:35.624Z,80.28
2018-04-21T02:47:03.399Z,80.17
2018-04-21T02:49:30.952Z,80.62
2018-04-21T02:51:58.565Z,80.53
2018-04-21T02:54:26.296Z,80.36
2018-04-21T02:56:53.990Z,80.08
2018-04-21T02:59:21.731Z,79.74
2018-04-21T03:01:49.293Z,80.16
2018-04-21T03:04:16.934Z,80.48
2018-04-21T03:06:44.657Z,80.65
2018-04-21T03:09:12.220Z,80.75
2018-04-21T03:11:39.788Z,80.58
2018-04-21T03:14:07.539Z,80.68
2018-04-21T03:16:35.156Z,80.67
2018-04-21T03:19:02.729Z,80.80
2018-04-21T03:21:30.289Z,81.12
2018-04-21T03:23:57.841Z,81.22
2018-04-21T03:26:25.402Z,81.04
2018-04-21T03:28:53.031Z,80.87
2018-04-21T03:31:20.600Z,80.90
2018-04-21T03:33:48.386Z,80.46
2018-04-21T03:36:15.954Z,80.63
2018-04-21T03:38:43.718Z,80.97
2018-04-21T03:41:11.280Z,81.13
2018-04-21T03:43:39.059Z,81.21
2018-04-21T03:46:06.673Z,81.36
2018-04-21T03:48:34.228Z,81.47
2018-04-21T03:51:02.008Z,81.37
2018-04-21T03:53:29.585Z,81.32
2018-04-21T03:55:57.236Z,81.12
2018-04-21T03:58:24.873Z,80.95
2018-04-21T04:00:52.432Z,80.55
2018-04-21T04:03:20.052Z,80.28
2018-04-21T04:05:47.817Z,80.37
2018-04-21T04:08:15.376Z,80.41
2018-04-21T04:10:43.043Z,80.50
2018-04-21T04:13:10.616Z,79.75
2018-04-21T04:15:50.235Z,79.76
2018-04-21T04:18:29.699Z,79.64
2018-04-21T04:24:00.125Z,79.17
2018-04-21T04:26:27.700Z,78.86
2018-04-21T04:28:55.264Z,78.52
2018-04-21T04:31:22.836Z,78.24
2018-04-21T04:33:50.396Z,77.91
2018-04-21T04:36:18.239Z,76.27
2018-04-21T04:38:45.957Z,75.01
2018-04-21T04:41:13.532Z,74.66
2018-04-21T04:43:41.293Z,74.04
2018-04-21T04:46:08.869Z,74.21
2018-04-21T04:48:36.441Z,73.41
2018-04-21T04:51:04.137Z,73.34
2018-04-21T04:53:31.756Z,73.19
2018-04-21T04:55:59.333Z,73.37
2018-04-21T04:58:26.908Z,72.96
2018-04-21T05:00:54.487Z,72.38
2018-04-21T05:03:22.211Z,72.23
2018-04-21T05:05:49.781Z,71.53
2018-04-21T05:08:17.349Z,70.61
2018-04-21T05:10:44.983Z,67.14
2018-04-21T05:13:12.809Z,63.58
2018-04-21T05:15:40.379Z,57.97
2018-04-21T05:18:07.948Z,54.43
2018-04-21T05:20:35.517Z,51.21
2018-04-21T05:23:03.079Z,48.66
2018-04-21T05:25:30.644Z,47.10
2018-04-21T05:27:58.248Z,45.53
2018-04-21T05:30:25.804Z,43.67
2018-04-21T05:32:53.380Z,43.72
2018-04-21T05:35:21.171Z,44.54
2018-04-21T05:37:48.742Z,44.69
2018-04-21T05:40:16.315Z,44.02
2018-04-21T05:42:43.888Z,41.33
2018-04-21T05:45:11.743Z,40.92
2018-04-21T05:47:39.315Z,42.22
2018-04-21T05:50:06.887Z,43.33
2018-04-21T05:52:34.701Z,44.32
2018-04-21T05:55:02.265Z,44.93
2018-04-21T05:57:30.090Z,43.84
2018-04-21T05:59:57.678Z,40.07
2018-04-21T06:02:25.325Z,37.33
2018-04-21T06:04:52.886Z,36.36
2018-04-21T06:07:20.706Z,38.34
2018-04-21T06:09:48.278Z,40.82
2018-04-21T06:12:15.848Z,42.88
2018-04-21T06:14:43.416Z,44.39
2018-04-21T06:17:11.178Z,45.33
2018-04-21T06:19:38.790Z,45.53
2018-04-21T06:22:06.514Z,45.66
2018-04-21T06:24:34.090Z,45.86
2018-04-21T06:27:01.742Z,46.00
2018-04-21T06:29:29.308Z,44.17
2018-04-21T06:31:56.896Z,44.64
2018-04-21T06:34:24.461Z,43.98
2018-04-21T06:36:52.082Z,41.83
2018-04-21T06:39:19.649Z,38.46
2018-04-21T06:41:47.270Z,34.94
2018-04-21T06:44:14.868Z,32.73
2018-04-21T06:46:42.427Z,30.38
2018-04-21T06:49:09.982Z,29.57
2018-04-21T06:51:37.829Z,28.29
2018-04-21T06:54:05.440Z,28.10
2018-04-21T06:56:33.008Z,27.98
2018-04-21T06:59:00.570Z,27.51
2018-04-21T07:01:28.503Z,27.00
2018-04-21T07:03:56.059Z,27.46
2018-04-21T07:06:23.637Z,26.58
2018-04-21T07:08:51.262Z,27.04
2018-04-21T07:11:18.877Z,25.98
2018-04-21T07:13:46.465Z,25.80
2018-04-21T07:16:14.027Z,25.41
2018-04-21T07:18:42.134Z,25.88
2018-04-21T07:21:10.478Z,25.97
2018-04-21T07:23:38.156Z,25.43
2018-04-21T07:26:05.716Z,24.60
2018-04-21T07:28:33.336Z,24.51
2018-04-21T07:31:01.014Z,23.89
2018-04-21T07:33:28.825Z,23.99
2018-04-21T07:35:56.439Z,24.15
2018-04-21T07:38:24.022Z,23.63
2018-04-21T07:40:51.763Z,23.18
2018-04-21T07:43:19.389Z,22.28
2018-04-21T07:45:46.993Z,23.69
2018-04-21T07:48:14.713Z,24.24
2018-04-21T07:50:42.280Z,23.79
2018-04-21T07:53:10.076Z,23.01
2018-04-21T07:55:37.794Z,22.56
2018-04-21T07:58:05.386Z,22.98
2018-04-21T08:00:33.018Z,23.24
2018-04-21T08:03:00.844Z,24.72
2018-04-21T08:05:28.661Z,24.09
2018-04-21T08:07:56.256Z,23.58
2018-04-21T08:10:23.999Z,23.65
2018-04-21T08:12:51.613Z,24.07
2018-04-21T08:15:19.153Z,24.59
2018-04-21T08:17:46.989Z,24.33
2018-04-21T08:20:14.600Z,23.90
2018-04-21T08:22:42.293Z,24.03
2018-04-21T08:25:10.107Z,24.02
2018-04-21T08:27:37.684Z,23.67
2018-04-21T08:30:05.290Z,24.63
2018-04-21T08:32:32.856Z,23.07
2018-04-21T08:35:00.583Z,23.81
2018-04-21T08:37:28.187Z,23.54
2018-04-21T08:39:55.736Z,23.22
2018-04-21T08:42:23.282Z,23.92
2018-04-21T08:44:50.837Z,23.82
2018-04-21T08:47:18.378Z,23.81
2018-04-21T08:49:46.000Z,24.21
2018-04-21T08:52:13.560Z,24.59
2018-04-21T08:54:41.175Z,24.88
2018-04-21T08:57:08.856Z,24.69
2018-04-21T08:59:36.449Z,24.54
2018-04-21T09:02:04.065Z,24.33
2018-04-21T09:04:31.763Z,22.58
2018-04-21T09:06:59.346Z,24.45
2018-04-21T09:09:26.909Z,23.45
2018-04-21T09:11:54.545Z,22.50
2018-04-21T09:14:22.367Z,21.99
2018-04-21T09:16:49.938Z,22.18
2018-04-21T09:19:17.517Z,21.89
2018-04-21T09:21:45.068Z,22.21
2018-04-21T09:24:12.735Z,21.64
2018-04-21T09:26:40.287Z,20.84
2018-04-21T09:29:08.073Z,20.85
2018-04-21T09:31:35.892Z,20.28
2018-04-21T09:34:03.448Z,19.39
2018-04-21T09:36:31.128Z,20.56
2018-04-21T09:38:58.675Z,21.48
2018-04-21T09:41:26.239Z,20.79
2018-04-21T09:43:53.876Z,21.53
2018-04-21T09:46:21.575Z,21.29
2018-04-21T09:48:49.188Z,21.52
2018-04-21T09:51:16.826Z,21.61
2018-04-21T09:53:44.394Z,21.83
2018-04-21T09:56:12.013Z,22.08
2018-04-21T09:58:39.598Z,22.29
2018-04-21T10:01:07.257Z,21.82
2018-04-21T10:03:34.820Z,23.05
2018-04-21T10:06:02.427Z,22.85
2018-04-21T10:08:30.036Z,22.11
2018-04-21T10:10:57.589Z,23.51
2018-04-21T10:13:25.141Z,23.00
2018-04-21T10:15:52.709Z,23.34
2018-04-21T10:18:20.321Z,23.50
2018-04-21T10:20:47.957Z,22.92
2018-04-21T10:23:15.669Z,24.11
2018-04-21T10:25:43.288Z,24.76
2018-04-21T10:28:10.851Z,23.30
2018-04-21T10:30:38.534Z,22.97
2018-04-21T10:33:06.092Z,23.18
2018-04-21T10:35:33.686Z,24.97
2018-04-21T10:38:01.347Z,25.13
2018-04-21T10:40:28.950Z,24.29
2018-04-21T10:42:56.604Z,23.96
2018-04-21T10:45:24.519Z,23.68
2018-04-21T10:47:53.207Z,23.42
2018-04-21T10:50:20.758Z,23.87
2018-04-21T10:52:48.305Z,22.95
2018-04-21T10:55:15.869Z,22.74
2018-04-21T10:57:43.426Z,23.35
2018-04-21T11:00:11.164Z,24.39
2018-04-21T11:02:38.732Z,23.98
2018-04-21T11:05:06.644Z,24.98
2018-04-21T11:07:34.193Z,24.86
2018-04-21T11:10:01.866Z,26.09
2018-04-21T11:12:29.497Z,25.33
2018-04-21T11:14:57.108Z,25.07
2018-04-21T11:17:24.671Z,26.05
2018-04-21T11:19:52.407Z,26.18
2018-04-21T11:22:19.968Z,26.37
2018-04-21T11:24:47.535Z,26.11
2018-04-21T11:27:15.100Z,25.61
2018-04-21T11:29:42.669Z,26.08
2018-04-21T11:32:10.220Z,25.12
2018-04-21T11:34:37.840Z,25.54
2018-04-21T11:37:05.501Z,24.08
2018-04-21T11:39:33.097Z,25.57
2018-04-21T11:42:00.731Z,24.58
2018-04-21T11:44:28.305Z,24.59
2018-04-21T11:46:55.897Z,25.00
2018-04-21T11:49:23.480Z,24.85
2018-04-21T11:51:52.903Z,24.61
2018-04-21T11:54:20.760Z,23.86
2018-04-21T11:56:48.725Z,23.17
2018-04-21T11:59:16.733Z,22.93
2018-04-21T12:01:44.310Z,24.28
2018-04-21T12:04:11.932Z,23.75
2018-04-21T12:06:39.500Z,24.01
2018-04-21T12:09:07.066Z,24.93
2018-04-21T12:11:34.631Z,24.79
2018-04-21T12:14:02.196Z,24.79
2018-04-21T12:16:29.873Z,24.69
2018-04-21T12:18:57.520Z,24.70
2018-04-21T12:21:25.243Z,25.95
2018-04-21T12:23:52.811Z,25.38
2018-04-21T12:26:20.432Z,25.52
2018-04-21T12:28:48.001Z,25.56
2018-04-21T12:31:15.561Z,26.35
2018-04-21T12:33:43.181Z,25.98
2018-04-21T12:36:10.808Z,26.98
2018-04-21T12:38:38.372Z,27.19
2018-04-21T12:41:06.011Z,26.17
2018-04-21T12:43:33.642Z,26.03
2018-04-21T12:46:01.201Z,26.06
2018-04-21T12:48:28.748Z,25.73
2018-04-21T12:50:56.376Z,26.19
2018-04-21T12:53:23.990Z,26.00
2018-04-21T12:55:51.559Z,26.62
2018-04-21T12:58:19.121Z,27.25
2018-04-21T13:00:46.751Z,26.13
2018-04-21T13:03:14.325Z,27.40
2018-04-21T13:05:41.955Z,26.97
2018-04-21T13:08:09.806Z,26.78
2018-04-21T13:10:37.364Z,27.61
2018-04-21T13:13:04.959Z,27.47
2018-04-21T13:15:32.528Z,26.41
2018-04-21T13:18:00.084Z,27.28
2018-04-21T13:20:27.652Z,26.37
2018-04-21T13:22:55.277Z,26.17
2018-04-21T13:25:22.848Z,26.13
2018-04-21T13:27:50.431Z,26.91
2018-04-21T13:30:18.047Z,26.69
2018-04-21T13:32:45.605Z,28.30
2018-04-21T13:35:13.381Z,27.94
2018-04-21T13:37:40.929Z,28.24
2018-04-21T13:40:08.599Z,28.66
2018-04-21T13:42:36.201Z,27.53
2018-04-21T13:45:03.849Z,28.68
2018-04-21T13:47:31.552Z,26.92
2018-04-21T13:49:59.108Z,26.46
2018-04-21T13:52:26.699Z,26.92
2018-04-21T13:54:54.329Z,26.88
2018-04-21T13:57:21.881Z,27.86
2018-04-21T13:59:49.446Z,27.18
2018-04-21T14:02:17.038Z,26.90
2018-04-21T14:04:44.641Z,27.81
2018-04-21T14:07:12.191Z,27.46
2018-04-21T14:09:39.921Z,27.57
2018-04-21T14:12:07.480Z,27.50
2018-04-21T14:14:35.093Z,26.60
2018-04-21T14:17:02.751Z,27.38
2018-04-21T14:19:30.491Z,26.61
2018-04-21T14:21:58.135Z,26.32
2018-04-21T14:24:25.714Z,27.17
2018-04-21T14:26:53.268Z,26.76
2018-04-21T14:29:20.906Z,26.61
2018-04-21T14:31:48.468Z,27.05
2018-04-21T14:34:16.189Z,25.97
2018-04-21T14:36:43.833Z,26.09
2018-04-21T14:39:11.622Z,26.25
2018-04-21T14:41:39.249Z,26.57
2018-04-21T14:44:06.806Z,26.43
2018-04-21T14:46:34.388Z,26.90
2018-04-21T14:49:02.091Z,26.57
2018-04-21T14:51:29.658Z,25.72
2018-04-21T14:53:57.273Z,25.71
2018-04-21T14:56:24.877Z,26.13
2018-04-21T14:58:52.418Z,26.52
2018-04-21T15:01:20.065Z,26.46
2018-04-21T15:03:47.637Z,26.79
2018-04-21T15:06:15.289Z,26.58
2018-04-21T15:08:42.925Z,26.66
2018-04-21T15:11:10.484Z,26.81
2018-04-21T15:13:38.160Z,27.58
2018-04-21T15:16:05.766Z,27.16
2018-04-21T15:18:33.397Z,27.71
2018-04-21T15:21:01.081Z,27.73
2018-04-21T15:23:28.777Z,28.09
2018-04-21T15:25:56.441Z,28.21
2018-04-21T15:28:24.157Z,27.94
2018-04-21T15:30:51.821Z,27.89
2018-04-21T15:33:19.922Z,28.26
2018-04-21T15:35:47.487Z,28.57
2018-04-21T15:38:15.048Z,28.76
2018-04-21T15:40:42.601Z,29.24
2018-04-21T15:43:10.178Z,28.93
2018-04-21T15:45:37.732Z,28.65
2018-04-21T15:48:05.523Z,28.61
2018-04-21T15:50:33.242Z,29.31
2018-04-21T15:53:00.830Z,29.41
2018-04-21T15:55:28.577Z,29.57
2018-04-21T15:57:56.190Z,30.49
2018-04-21T16:00:23.757Z,30.14
2018-04-21T16:02:51.384Z,30.93
2018-04-21T16:05:18.965Z,31.74
2018-04-21T16:07:46.518Z,31.76
2018-04-21T16:10:14.069Z,32.69
2018-04-21T16:12:41.903Z,32.68
2018-04-21T16:15:09.480Z,34.72
2018-04-21T16:17:37.127Z,35.27
2018-04-21T16:20:04.749Z,35.44
2018-04-21T16:22:32.361Z,35.86
2018-04-21T16:24:59.930Z,36.46
2018-04-21T16:27:27.648Z,37.38
2018-04-21T16:29:55.244Z,37.66
2018-04-21T16:32:23.049Z,38.29
2018-04-21T16:34:50.871Z,38.72
2018-04-21T16:37:18.420Z,39.19
2018-04-21T16:39:46.041Z,39.55
2018-04-21T16:42:13.642Z,39.90
2018-04-21T16:44:41.439Z,40.08
2018-04-21T16:47:08.999Z,40.15
2018-04-21T16:49:36.548Z,40.78
2018-04-21T16:52:04.129Z,40.98
2018-04-21T16:54:31.692Z,41.26
2018-04-21T16:56:59.550Z,41.18
2018-04-21T16:59:27.121Z,41.21
2018-04-21T17:01:54.751Z,41.67
2018-04-21T17:04:22.536Z,42.16
2018-04-21T17:06:50.111Z,42.63
2018-04-21T17:09:17.921Z,42.85
2018-04-21T17:11:45.639Z,42.73
2018-04-21T17:14:13.460Z,43.04
2018-04-21T17:16:41.020Z,43.19
2018-04-21T17:19:08.579Z,43.29
2018-04-21T17:21:36.201Z,43.65
2018-04-21T17:24:03.752Z,43.55
2018-04-21T17:26:31.428Z,44.15
2018-04-21T17:28:59.072Z,43.90
2018-04-21T17:31:26.788Z,44.31
2018-04-21T17:33:54.344Z,44.78
2018-04-21T17:36:21.915Z,45.56
2018-04-21T17:38:49.513Z,45.40
2018-04-21T17:41:17.069Z,46.14
2018-04-21T17:43:44.873Z,45.85
2018-04-21T17:46:12.433Z,45.74
2018-04-21T17:48:40.047Z,45.67
2018-04-21T17:51:07.765Z,45.60
2018-04-21T17:53:35.328Z,45.30
2018-04-21T17:56:02.904Z,45.21
2018-04-21T17:58:30.457Z,45.52
2018-04-21T18:00:58.128Z,45.93
2018-04-21T18:03:25.680Z,46.05
2018-04-21T18:05:53.304Z,46.40
2018-04-21T18:08:20.866Z,47.02
2018-04-21T18:10:48.426Z,47.03
2018-04-21T18:13:16.218Z,47.18
2018-04-21T18:15:43.935Z,47.72
2018-04-21T18:18:11.755Z,47.95
2018-04-21T18:20:39.306Z,48.03
2018-04-21T18:23:06.928Z,48.36
2018-04-21T18:25:34.491Z,48.79
2018-04-21T18:28:02.071Z,48.78
2018-04-21T18:30:29.737Z,49.21
2018-04-21T18:32:57.462Z,49.75
2018-04-21T18:35:25.074Z,50.57
2018-04-21T18:37:52.645Z,53.09
2018-04-21T18:40:20.269Z,52.71
2018-04-21T18:42:48.013Z,53.08
2018-04-21T18:45:15.584Z,52.71
2018-04-21T18:47:43.154Z,53.66
2018-04-21T18:50:10.863Z,53.38
2018-04-21T18:52:38.444Z,53.88
2018-04-21T18:55:06.196Z,53.92
2018-04-21T18:57:33.808Z,54.15
2018-04-21T19:00:01.560Z,54.09
2018-04-21T19:02:29.195Z,54.40
2018-04-21T19:04:56.832Z,54.10
2018-04-21T19:07:24.449Z,53.11
2018-04-21T19:09:52.035Z,52.70
2018-04-21T19:12:19.588Z,52.53
2018-04-21T19:14:47.260Z,51.91
2018-04-21T19:17:14.820Z,52.41
2018-04-21T19:19:42.380Z,53.09
2018-04-21T19:22:10.011Z,53.28
2018-04-21T19:24:37.546Z,53.80
2018-04-21T19:27:05.173Z,53.68
2018-04-21T19:29:32.724Z,54.56
2018-04-21T19:32:00.595Z,54.18
2018-04-21T19:34:28.311Z,54.44
2018-04-21T19:36:55.888Z,55.01
2018-04-21T19:39:23.452Z,55.25
2018-04-21T19:41:51.017Z,55.33
2018-04-21T19:44:18.587Z,55.38
2018-04-21T19:46:46.300Z,55.34
2018-04-21T19:49:13.890Z,55.04
2018-04-21T19:51:41.527Z,55.04
2018-04-21T19:54:09.087Z,56.35
2018-04-21T19:56:36.714Z,56.48
2018-04-21T19:59:04.345Z,58.40
2018-04-21T20:01:31.950Z,57.80
2018-04-21T20:03:59.569Z,57.08
2018-04-21T20:06:27.245Z,57.59
2018-04-21T20:08:55.046Z,58.15
2018-04-21T20:11:22.840Z,59.80
2018-04-21T20:13:50.421Z,60.95
2018-04-21T20:16:18.108Z,61.13
2018-04-21T20:18:45.709Z,61.12
2018-04-21T20:21:13.300Z,60.91
2018-04-21T20:23:40.963Z,61.39
2018-04-21T20:26:08.801Z,62.42
2018-04-21T20:28:36.448Z,62.14
2018-04-21T20:31:04.226Z,61.72
2018-04-21T20:33:31.887Z,60.57
2018-04-21T20:35:59.480Z,60.00
2018-04-21T20:38:27.171Z,60.18
2018-04-21T20:40:54.761Z,61.39
2018-04-21T20:43:22.340Z,61.65
2018-04-21T20:45:50.135Z,61.96
2018-04-21T20:48:17.853Z,62.51
2018-04-21T20:50:45.484Z,62.47
2018-04-21T20:53:13.289Z,61.56
2018-04-21T20:55:40.880Z,60.70
2018-04-21T20:58:08.458Z,60.72
2018-04-21T21:00:36.108Z,61.18
2018-04-21T21:03:03.788Z,60.92
2018-04-21T21:05:31.481Z,60.92
2018-04-21T21:07:59.130Z,62.76
2018-04-21T21:10:26.739Z,63.41
2018-04-21T21:12:54.503Z,63.92
2018-04-21T21:15:22.112Z,64.13
2018-04-21T21:17:49.693Z,64.43
2018-04-21T21:20:17.588Z,64.53
2018-04-21T21:22:45.199Z,63.79
2018-04-21T21:25:12.784Z,63.89
2018-04-21T21:27:40.543Z,64.51
2018-04-21T21:30:08.124Z,65.57
2018-04-21T21:32:35.879Z,65.82
2018-04-21T21:35:03.488Z,66.20
2018-04-21T21:37:31.131Z,66.28
2018-04-21T21:39:58.784Z,66.35
2018-04-21T21:42:26.445Z,66.91
2018-04-21T21:44:54.271Z,67.04
2018-04-21T21:47:21.879Z,66.92
2018-04-21T21:49:49.506Z,67.47
2018-04-21T21:52:17.114Z,67.58
2018-04-21T21:54:44.942Z,67.60
2018-04-21T21:57:12.629Z,67.67
2018-04-21T21:59:40.343Z,67.74
2018-04-21T22:02:07.973Z,67.79
2018-04-21T22:04:35.546Z,67.75
2018-04-21T22:07:08.783Z,67.60
2018-04-21T22:09:36.344Z,67.79
2018-04-21T22:12:03.915Z,68.16
2018-04-21T22:14:31.486Z,68.17
2018-04-21T22:16:59.107Z,68.41
2018-04-21T22:19:26.839Z,68.43
2018-04-21T22:21:54.490Z,68.55
2018-04-21T22:24:22.278Z,68.67
2018-04-21T22:26:49.837Z,68.53
2018-04-21T22:29:17.408Z,69.13
2018-04-21T22:31:44.949Z,69.02
2018-04-21T22:34:12.527Z,69.05
2018-04-21T22:36:40.240Z,69.18
2018-04-21T22:39:07.875Z,69.15
2018-04-21T22:41:35.437Z,69.09
2018-04-21T22:44:02.996Z,69.02
2018-04-21T22:46:30.838Z,69.20
2018-04-21T22:48:58.556Z,69.25
2018-04-21T22:51:26.211Z,69.36
2018-04-21T22:53:53.992Z,69.75
2018-04-21T22:56:21.672Z,69.61
2018-04-21T22:58:49.236Z,68.51
2018-04-21T23:01:17.047Z,67.82
2018-04-21T23:03:44.657Z,67.59
2018-04-21T23:06:12.386Z,67.32
2018-04-21T23:08:40.103Z,67.20
2018-04-21T23:11:07.682Z,67.16
2018-04-21T23:13:35.236Z,66.82
2018-04-21T23:16:02.857Z,67.88
2018-04-21T23:18:30.675Z,69.33
2018-04-21T23:20:58.228Z,70.00
2018-04-21T23:23:26.013Z,70.36
2018-04-21T23:25:53.568Z,70.89
2018-04-21T23:28:21.188Z,71.00
2018-04-21T23:30:48.966Z,71.20
2018-04-21T23:33:16.525Z,70.81
2018-04-21T23:35:44.302Z,70.89
2018-04-21T23:38:12.023Z,70.83
2018-04-21T23:40:39.592Z,70.11
2018-04-21T23:43:07.248Z,69.98
2018-04-21T23:45:34.995Z,70.07
2018-04-21T23:48:02.548Z,70.43
2018-04-21T23:50:30.114Z,70.28
2018-04-21T23:52:57.676Z,69.50
2018-04-21T23:55:25.421Z,69.02
2018-04-21T23:57:53.135Z,69.37
